This is the latest recevied weather packets stored in our database for station/object DB3LD. If no packets are shown the sender has not sent any weather packets the latest 10 day(s).
| Time | Temp. | Humidity | Pressure | Rain* | Wind** | Luminosity | Snow |
|---|---|---|---|---|---|---|---|
| 1788135611 | 62° F | 95% | 757.4 mmHg | 0.02 in | - | 0 W/m² | - |
| 1788129009 | 62° F | 94% | 757.8 mmHg | 0 in | - | 0 W/m² | - |
| 1788126009 | 61° F | 94% | 757.9 mmHg | 0 in | - | 0 W/m² | - |
| 1788108610 | 67° F | 86% | 757.2 mmHg | 0 in | - | 73 W/m² | - |
| 1788104409 | 69° F | 85% | 756.7 mmHg | 0 in | - | 135 W/m² | - |
| 1788100208 | 69° F | 86% | 756.1 mmHg | 0 in | - | 110 W/m² | - |
| 1788096613 | 69° F | 89% | 755.5 mmHg | 0.01 in | - | 269 W/m² | - |
| 1788093011 | 66° F | 92% | 754.8 mmHg | 0.02 in | - | 122 W/m² | - |
| 1788085809 | 66° F | 94% | 754 mmHg | 0.01 in | - | 351 W/m² | - |
| 1788081008 | 64° F | 94% | 753.4 mmHg | 0 in | - | 111 W/m² | - |
| 1788072008 | 63° F | 95% | 752.5 mmHg | 0.02 in | - | 53 W/m² | - |
| 1788060010 | 63° F | 95% | 753 mmHg | 0.01 in | - | 0 W/m² | - |
| 1788058209 | 63° F | 95% | 753.3 mmHg | 0 in | - | 0 W/m² | - |
| 1788054010 | 63° F | 94% | 753.7 mmHg | 0 in | - | 0 W/m² | - |
| 1788039610 | 63° F | 91% | 755.8 mmHg | 0 in | - | 0 W/m² | - |
| 1788033608 | 63° F | 89% | 756.1 mmHg | 0 in | - | 0 W/m² | - |
| 1788030608 | 63° F | 86% | 756.4 mmHg | 0 in | - | 0 W/m² | - |
| 1788023411 | 67° F | 81% | 756.4 mmHg | 0 in | - | 60 W/m² | - |
| 1788021610 | 67° F | 83% | 756.4 mmHg | 0 in | - | 34 W/m² | - |
| 1788021011 | 68° F | 83% | 756.5 mmHg | 0 in | - | 34 W/m² | - |
| 1788019210 | 68° F | 82% | 756.4 mmHg | 0 in | - | 89 W/m² | - |
| 1788018610 | 68° F | 82% | 756.4 mmHg | 0 in | - | 81 W/m² | - |
| 1788010212 | 71° F | 78% | 756.4 mmHg | 0 in | - | 564 W/m² | - |
| 1788009012 | 71° F | 79% | 756.3 mmHg | 0 in | - | 116 W/m² | - |
| 1787997610 | 64° F | 90% | 755.9 mmHg | 0 in | - | 225 W/m² | - |
* Rain latest hour (hover to see other rain measurements)
** Current wind speed in m/s (hover to see current wind gust speed)